createdAt,value
2023-01-27T00:00:38.577Z,21.80
2023-01-27T00:03:05.400Z,21.35
2023-01-27T00:05:32.130Z,21.90
2023-01-27T00:07:59.125Z,21.33
2023-01-27T00:10:26.633Z,20.77
2023-01-27T00:13:12.439Z,20.48
2023-01-27T00:15:39.574Z,20.50
2023-01-27T00:18:06.867Z,19.08
2023-01-27T00:20:52.226Z,22.88
2023-01-27T00:23:42.723Z,20.02
2023-01-27T00:26:12.035Z,18.80
2023-01-27T00:28:40.396Z,23.65
2023-01-27T00:31:27.974Z,22.33
2023-01-27T00:34:02.001Z,22.42
2023-01-27T00:36:30.250Z,22.77
2023-01-27T00:38:57.399Z,20.83
2023-01-27T00:41:24.089Z,22.27
2023-01-27T00:43:53.644Z,21.85
2023-01-27T00:46:22.460Z,19.50
2023-01-27T00:48:50.035Z,21.10
2023-01-27T00:51:17.522Z,23.88
2023-01-27T00:53:45.237Z,22.83
2023-01-27T00:56:11.976Z,21.95
2023-01-27T00:58:39.193Z,22.45
2023-01-27T01:01:10.457Z,25.50
2023-01-27T01:03:37.346Z,24.25
2023-01-27T01:06:09.673Z,24.23
2023-01-27T01:08:37.825Z,24.13
2023-01-27T01:11:09.188Z,20.50
2023-01-27T01:13:35.917Z,26.23
2023-01-27T01:16:14.906Z,23.33
2023-01-27T01:18:43.449Z,25.27
2023-01-27T01:21:11.175Z,23.60
2023-01-27T01:23:41.565Z,23.08
2023-01-27T01:26:14.674Z,24.45
2023-01-27T01:28:41.476Z,23.25
2023-01-27T01:31:14.157Z,26.63
2023-01-27T01:33:41.014Z,24.63
2023-01-27T01:36:09.793Z,25.63
2023-01-27T01:38:36.681Z,23.85
2023-01-27T01:41:04.431Z,22.92
2023-01-27T01:43:31.176Z,24.13
2023-01-27T01:45:59.462Z,27.83
2023-01-27T01:48:42.556Z,24.65
2023-01-27T01:51:13.477Z,25.05
2023-01-27T01:53:49.282Z,23.48
2023-01-27T01:56:21.383Z,25.05
2023-01-27T01:58:49.374Z,24.58
2023-01-27T02:01:17.918Z,24.35
2023-01-27T02:03:50.977Z,26.25
2023-01-27T02:06:18.050Z,25.58
2023-01-27T02:08:46.855Z,26.73
2023-01-27T02:11:13.700Z,25.40
2023-01-27T02:13:41.260Z,26.90
2023-01-27T02:16:09.511Z,26.60
2023-01-27T02:18:38.647Z,25.92
2023-01-27T02:21:05.970Z,27.25
2023-01-27T02:23:59.635Z,28.23
2023-01-27T02:26:34.740Z,25.60
2023-01-27T02:29:13.001Z,27.00
2023-01-27T02:31:40.336Z,26.85
2023-01-27T02:34:14.680Z,26.98
2023-01-27T02:39:13.946Z,28.67
2023-01-27T02:41:43.555Z,24.17
2023-01-27T02:44:10.968Z,24.42
2023-01-27T02:46:37.748Z,23.73
2023-01-27T02:49:04.865Z,24.30
2023-01-27T02:51:31.993Z,25.27
2023-01-27T02:53:58.823Z,24.67
2023-01-27T02:56:25.886Z,24.05
2023-01-27T02:58:52.673Z,25.10
2023-01-27T03:01:19.587Z,23.10
2023-01-27T03:03:47.785Z,21.20
2023-01-27T03:06:15.209Z,18.67
2023-01-27T03:08:42.626Z,20.13
2023-01-27T03:11:10.679Z,21.77
2023-01-27T03:13:37.525Z,18.83
2023-01-27T03:16:24.635Z,20.10
2023-01-27T03:18:53.707Z,21.02
2023-01-27T03:21:20.724Z,21.60
2023-01-27T03:23:49.177Z,17.85
2023-01-27T03:26:16.415Z,21.35
2023-01-27T03:28:43.239Z,20.38
2023-01-27T03:31:21.085Z,20.25
2023-01-27T03:33:53.107Z,19.67
2023-01-27T03:36:38.350Z,21.23
2023-01-27T03:39:23.548Z,19.13
2023-01-27T03:42:09.169Z,19.60
2023-01-27T03:44:54.624Z,19.48
2023-01-27T03:47:21.357Z,19.80
2023-01-27T03:49:48.010Z,20.70
2023-01-27T03:52:14.697Z,18.83
2023-01-27T03:54:41.343Z,19.67
2023-01-27T03:57:08.003Z,18.48
2023-01-27T03:59:35.367Z,19.23
2023-01-27T04:02:21.029Z,20.42
2023-01-27T04:05:06.459Z,19.60
2023-01-27T04:07:36.418Z,22.70
2023-01-27T04:10:04.813Z,22.15
2023-01-27T04:12:32.387Z,20.00
2023-01-27T04:14:59.115Z,22.67
2023-01-27T04:17:25.786Z,20.40
2023-01-27T04:19:52.505Z,20.92
2023-01-27T04:22:19.376Z,21.67
2023-01-27T04:24:46.052Z,23.00
2023-01-27T04:27:15.637Z,21.50
2023-01-27T04:29:43.030Z,20.55
2023-01-27T04:32:11.414Z,21.20
2023-01-27T04:34:39.083Z,21.75
2023-01-27T04:37:07.231Z,21.98
2023-01-27T04:39:34.743Z,20.70
2023-01-27T04:42:01.666Z,23.20
2023-01-27T04:44:28.406Z,27.33
2023-01-27T04:46:55.396Z,22.23
2023-01-27T04:49:22.504Z,22.45
2023-01-27T04:51:49.354Z,23.10
2023-01-27T04:54:16.203Z,22.17
2023-01-27T04:56:55.513Z,22.25
2023-01-27T04:59:22.466Z,22.75
2023-01-27T05:01:49.311Z,21.27
2023-01-27T05:04:16.342Z,18.65
2023-01-27T05:06:43.052Z,21.73
2023-01-27T05:09:10.044Z,19.80
2023-01-27T05:11:36.808Z,22.60
2023-01-27T05:14:03.540Z,17.58
2023-01-27T05:16:30.250Z,19.02
2023-01-27T05:18:57.005Z,16.58
2023-01-27T05:21:28.240Z,16.23
2023-01-27T05:23:55.013Z,15.50
2023-01-27T05:26:24.515Z,16.45
2023-01-27T05:28:52.688Z,17.92
2023-01-27T05:31:28.709Z,16.42
2023-01-27T05:33:56.508Z,15.35
2023-01-27T05:36:25.315Z,15.95
2023-01-27T05:38:53.347Z,17.33
2023-01-27T05:41:20.554Z,16.52
2023-01-27T05:43:51.657Z,16.42
2023-01-27T05:46:20.525Z,15.30
2023-01-27T05:48:50.431Z,16.50
2023-01-27T05:51:19.116Z,14.27
2023-01-27T05:53:46.537Z,16.73
2023-01-27T05:56:15.810Z,13.85
2023-01-27T05:58:43.194Z,13.60
2023-01-27T06:01:10.745Z,13.45
2023-01-27T06:03:38.162Z,14.73
2023-01-27T06:06:05.649Z,13.65
2023-01-27T06:08:32.722Z,13.25
2023-01-27T06:11:00.227Z,12.65
2023-01-27T06:13:27.114Z,11.57
2023-01-27T06:15:55.865Z,12.15
2023-01-27T06:18:23.689Z,14.57
2023-01-27T06:20:50.683Z,12.32
2023-01-27T06:23:18.259Z,13.13
2023-01-27T06:25:47.514Z,12.68
2023-01-27T06:28:28.343Z,11.88
2023-01-27T06:30:56.779Z,12.32
2023-01-27T06:33:23.989Z,12.45
2023-01-27T06:35:51.168Z,12.23
2023-01-27T06:38:17.879Z,13.32
2023-01-27T06:40:44.687Z,13.00
2023-01-27T06:43:13.706Z,13.70
2023-01-27T06:45:40.895Z,15.43
2023-01-27T06:48:10.891Z,12.63
2023-01-27T06:50:37.688Z,17.15
2023-01-27T06:53:06.405Z,14.00
2023-01-27T06:55:34.679Z,15.30
2023-01-27T06:58:02.595Z,15.35
2023-01-27T07:00:29.812Z,14.88
2023-01-27T07:02:56.916Z,15.15
2023-01-27T07:05:23.944Z,15.82
2023-01-27T07:07:50.680Z,15.23
2023-01-27T07:10:17.891Z,15.10
2023-01-27T07:12:44.758Z,13.25
2023-01-27T07:15:12.300Z,14.70
2023-01-27T07:17:39.308Z,13.75
2023-01-27T07:20:08.230Z,15.48
2023-01-27T07:22:34.989Z,17.35
2023-01-27T07:25:02.547Z,16.77
2023-01-27T07:27:29.558Z,17.33
2023-01-27T07:29:56.309Z,18.27
2023-01-27T07:32:23.257Z,17.65
2023-01-27T07:34:50.022Z,16.77
2023-01-27T07:37:16.994Z,17.33
2023-01-27T07:39:43.776Z,14.45
2023-01-27T07:42:10.502Z,17.92
2023-01-27T07:44:37.265Z,15.82
2023-01-27T07:47:05.546Z,16.77
2023-01-27T07:49:32.285Z,17.92
2023-01-27T07:51:58.997Z,16.65
2023-01-27T07:54:25.716Z,16.35
2023-01-27T07:56:52.491Z,14.93
2023-01-27T07:59:19.384Z,16.75
2023-01-27T08:01:48.314Z,16.00
2023-01-27T08:04:15.332Z,16.92
2023-01-27T08:06:42.025Z,21.33
2023-01-27T08:09:08.753Z,17.35
2023-01-27T08:11:35.565Z,16.52
2023-01-27T08:14:02.559Z,16.60
2023-01-27T08:16:29.407Z,17.13
2023-01-27T08:18:56.872Z,15.73
2023-01-27T08:21:25.248Z,16.20
2023-01-27T08:23:53.855Z,17.77
2023-01-27T08:26:20.786Z,15.27
2023-01-27T08:28:47.625Z,16.88
2023-01-27T08:31:16.266Z,13.43
2023-01-27T08:33:45.270Z,14.52
2023-01-27T08:36:14.517Z,12.95
2023-01-27T08:38:42.764Z,13.75
2023-01-27T08:41:21.826Z,14.57
2023-01-27T08:43:49.428Z,13.65
2023-01-27T08:46:16.737Z,14.68
2023-01-27T08:48:44.396Z,13.80
2023-01-27T08:51:13.804Z,14.43
2023-01-27T08:53:40.736Z,13.68
2023-01-27T08:56:11.185Z,12.68
2023-01-27T08:58:37.985Z,14.02
2023-01-27T09:01:06.699Z,16.35
2023-01-27T09:03:34.862Z,15.23
2023-01-27T09:06:04.131Z,15.95
2023-01-27T09:08:31.195Z,14.20
2023-01-27T09:10:58.181Z,16.15
2023-01-27T09:13:24.969Z,13.95
2023-01-27T09:15:52.863Z,14.05
2023-01-27T09:18:20.153Z,12.98
2023-01-27T09:20:47.181Z,13.18
2023-01-27T09:23:13.989Z,13.13
2023-01-27T09:25:40.691Z,15.90
2023-01-27T09:28:12.392Z,14.43
2023-01-27T09:30:41.004Z,12.60
2023-01-27T09:33:09.065Z,13.32
2023-01-27T09:35:42.613Z,12.38
2023-01-27T09:38:11.983Z,14.63
2023-01-27T09:41:20.366Z,14.25
2023-01-27T09:44:08.396Z,12.27
2023-01-27T09:46:53.654Z,12.73
2023-01-27T09:49:38.516Z,13.98
2023-01-27T09:52:47.119Z,13.13
2023-01-27T09:55:38.192Z,14.52
2023-01-27T09:58:19.421Z,16.15
2023-01-27T10:01:04.491Z,15.02
2023-01-27T10:03:37.048Z,17.25
2023-01-27T10:06:24.776Z,19.25
2023-01-27T10:09:13.261Z,17.17
2023-01-27T10:11:48.336Z,16.67
2023-01-27T10:14:51.723Z,18.42
2023-01-27T10:17:50.303Z,17.65
2023-01-27T10:20:28.629Z,18.33
2023-01-27T10:23:33.395Z,15.82
2023-01-27T10:26:06.073Z,12.77
2023-01-27T10:28:34.131Z,17.63
2023-01-27T10:31:01.961Z,15.80
2023-01-27T10:33:58.650Z,14.32
2023-01-27T10:36:36.892Z,15.57
2023-01-27T10:39:16.008Z,13.75
2023-01-27T10:42:07.144Z,15.68
2023-01-27T10:44:54.751Z,16.60
2023-01-27T10:47:37.912Z,16.88
2023-01-27T10:50:15.874Z,19.23
2023-01-27T10:52:54.387Z,16.67
2023-01-27T10:55:29.077Z,17.38
2023-01-27T10:58:20.864Z,15.57
2023-01-27T11:01:19.181Z,15.05
2023-01-27T11:03:46.359Z,14.82
2023-01-27T11:06:22.526Z,15.93
2023-01-27T11:08:53.730Z,16.35
2023-01-27T11:11:43.434Z,15.75
2023-01-27T11:14:49.215Z,12.20
2023-01-27T11:17:38.816Z,12.05
2023-01-27T11:20:20.488Z,10.38
2023-01-27T11:23:07.405Z,13.52
2023-01-27T11:25:46.851Z,12.50
2023-01-27T11:28:34.753Z,12.50
2023-01-27T11:31:24.904Z,10.77
2023-01-27T11:34:21.513Z,10.07
2023-01-27T11:36:50.168Z,11.25
2023-01-27T11:39:18.195Z,14.60
2023-01-27T11:41:53.472Z,12.70
2023-01-27T11:44:26.670Z,14.02
2023-01-27T11:46:54.076Z,13.40
2023-01-27T11:49:29.255Z,12.57
2023-01-27T11:52:11.342Z,13.20
2023-01-27T11:54:46.902Z,13.88
2023-01-27T11:57:22.833Z,12.18
2023-01-27T11:59:55.265Z,12.63
2023-01-27T12:03:00.509Z,13.05
2023-01-27T12:05:36.347Z,13.00
2023-01-27T12:08:05.157Z,13.70
2023-01-27T12:10:39.254Z,15.32
2023-01-27T12:13:25.072Z,15.35
2023-01-27T12:16:02.099Z,12.85
2023-01-27T12:18:33.296Z,13.05
2023-01-27T12:21:02.523Z,11.93
2023-01-27T12:23:46.500Z,13.63
2023-01-27T12:26:13.370Z,13.25
2023-01-27T12:28:46.377Z,13.48
2023-01-27T12:31:42.347Z,11.38
2023-01-27T12:34:22.394Z,10.02
2023-01-27T12:36:50.628Z,11.43
2023-01-27T12:39:32.523Z,10.98
2023-01-27T12:41:59.352Z,10.40
2023-01-27T12:44:28.956Z,10.27
2023-01-27T12:47:03.976Z,10.75
2023-01-27T12:49:38.034Z,12.70
2023-01-27T12:52:08.449Z,10.43
2023-01-27T12:54:36.141Z,10.50
2023-01-27T12:57:12.047Z,13.13
2023-01-27T12:59:55.057Z,11.20
2023-01-27T13:02:25.353Z,12.50
2023-01-27T13:05:00.577Z,10.82
2023-01-27T13:07:36.926Z,10.48
2023-01-27T13:10:20.588Z,11.00
2023-01-27T13:12:59.697Z,10.13
2023-01-27T13:15:29.632Z,10.95
2023-01-27T13:17:57.862Z,10.88
2023-01-27T13:20:47.240Z,10.07
2023-01-27T13:23:29.539Z,10.98
2023-01-27T13:26:08.209Z,10.98
2023-01-27T13:28:55.208Z,10.65
2023-01-27T13:31:50.904Z,11.55
2023-01-27T13:34:23.776Z,12.77
2023-01-27T13:37:26.776Z,10.40
2023-01-27T13:40:12.172Z,11.68
2023-01-27T13:42:48.760Z,10.93
2023-01-27T13:45:25.182Z,11.55
2023-01-27T13:48:08.522Z,12.13
2023-01-27T13:50:42.089Z,10.48
2023-01-27T13:53:13.867Z,10.75
2023-01-27T13:56:17.347Z,11.98
2023-01-27T13:58:44.593Z,12.10
2023-01-27T14:01:32.734Z,13.40
2023-01-27T14:04:40.810Z,12.45
2023-01-27T14:07:29.179Z,11.45
2023-01-27T14:10:01.753Z,13.07
2023-01-27T14:13:02.597Z,12.55
2023-01-27T14:15:41.107Z,11.70
2023-01-27T14:18:22.486Z,13.05
2023-01-27T14:21:08.078Z,12.38
2023-01-27T14:24:01.830Z,12.50
2023-01-27T14:26:36.646Z,12.93
2023-01-27T14:29:24.792Z,13.45
2023-01-27T14:31:54.705Z,11.55
2023-01-27T14:34:42.923Z,14.25
2023-01-27T14:37:23.808Z,10.57
2023-01-27T14:40:18.688Z,12.25
2023-01-27T14:42:55.399Z,12.50
2023-01-27T14:45:27.199Z,11.15
2023-01-27T14:48:11.104Z,12.68
2023-01-27T14:50:52.666Z,10.07
2023-01-27T14:53:37.862Z,11.57
2023-01-27T14:56:15.794Z,12.10
2023-01-27T14:58:49.596Z,12.93
2023-01-27T15:01:36.205Z,10.90
2023-01-27T15:04:49.646Z,10.30
2023-01-27T15:07:36.234Z,11.52
2023-01-27T15:10:16.979Z,9.63
2023-01-27T15:13:00.532Z,12.63
2023-01-27T15:15:48.531Z,11.07
2023-01-27T15:18:18.136Z,9.43
2023-01-27T15:21:18.906Z,11.30
2023-01-27T15:23:54.391Z,13.00
2023-01-27T15:26:25.035Z,11.75
2023-01-27T15:28:52.564Z,12.32
2023-01-27T15:31:19.622Z,12.90
2023-01-27T15:34:04.700Z,11.00
2023-01-27T15:36:35.336Z,10.88
2023-01-27T15:39:11.275Z,13.65
2023-01-27T15:42:02.319Z,11.73
2023-01-27T15:44:38.124Z,14.50
2023-01-27T15:47:12.792Z,15.40
2023-01-27T15:49:49.741Z,12.75
2023-01-27T15:52:29.056Z,12.77
2023-01-27T15:54:58.185Z,12.23
2023-01-27T15:57:37.297Z,14.02
2023-01-27T16:00:30.425Z,12.02
2023-01-27T16:03:02.617Z,12.68
2023-01-27T16:05:45.723Z,13.77
2023-01-27T16:08:14.979Z,11.00
2023-01-27T16:10:42.813Z,17.45
2023-01-27T16:13:25.783Z,14.40
2023-01-27T16:16:17.525Z,14.30
2023-01-27T16:19:11.978Z,12.88
2023-01-27T16:22:01.151Z,10.98
2023-01-27T16:24:39.852Z,11.73
2023-01-27T16:27:14.358Z,13.13
2023-01-27T16:29:57.756Z,14.18
2023-01-27T16:32:30.464Z,17.77
2023-01-27T16:35:04.645Z,13.98
2023-01-27T16:37:35.725Z,13.55
2023-01-27T16:40:14.990Z,13.98
2023-01-27T16:43:06.760Z,14.30
2023-01-27T16:45:52.641Z,12.27
2023-01-27T16:48:42.373Z,12.68
2023-01-27T16:51:14.822Z,13.38
2023-01-27T16:53:49.953Z,14.98
2023-01-27T16:56:26.837Z,12.90
2023-01-27T16:59:00.599Z,16.33
2023-01-27T17:01:50.464Z,11.73
2023-01-27T17:04:21.578Z,13.88
2023-01-27T17:06:50.863Z,14.40
2023-01-27T17:09:32.664Z,16.63
2023-01-27T17:11:59.761Z,14.85
2023-01-27T17:14:32.971Z,18.15
2023-01-27T17:17:02.282Z,16.17
2023-01-27T17:19:32.774Z,14.40
2023-01-27T17:22:06.863Z,17.23
2023-01-27T17:24:37.134Z,15.93
2023-01-27T17:27:21.512Z,14.90
2023-01-27T17:29:50.246Z,17.98
2023-01-27T17:32:24.900Z,16.73
2023-01-27T17:34:55.611Z,17.30
2023-01-27T17:37:24.378Z,16.77
2023-01-27T17:40:05.141Z,17.98
2023-01-27T17:42:33.799Z,16.98
2023-01-27T17:45:26.564Z,18.65
2023-01-27T17:47:54.184Z,17.65
2023-01-27T17:50:24.616Z,18.98
2023-01-27T17:52:53.833Z,19.13
2023-01-27T17:55:22.811Z,19.08
2023-01-27T17:57:51.474Z,20.65
2023-01-27T18:00:29.115Z,18.30
2023-01-27T18:02:55.874Z,19.33
2023-01-27T18:05:26.119Z,21.05
2023-01-27T18:07:53.608Z,18.63
2023-01-27T18:10:34.019Z,18.98
2023-01-27T18:13:21.291Z,18.45
2023-01-27T18:16:17.034Z,19.52
2023-01-27T18:18:44.724Z,19.48
2023-01-27T18:21:16.830Z,20.35
2023-01-27T18:23:53.017Z,19.08
2023-01-27T18:26:38.035Z,20.75
2023-01-27T18:29:13.662Z,21.00
2023-01-27T18:31:50.074Z,22.73
2023-01-27T18:34:26.726Z,23.00
2023-01-27T18:37:00.712Z,22.00
2023-01-27T18:39:39.251Z,25.10
2023-01-27T18:42:19.501Z,22.63
2023-01-27T18:44:49.474Z,24.30
2023-01-27T18:47:28.081Z,23.98
2023-01-27T18:49:59.840Z,24.75
2023-01-27T18:52:27.611Z,23.42
2023-01-27T18:55:07.618Z,23.15
2023-01-27T18:57:34.289Z,24.25
2023-01-27T19:00:01.080Z,25.95
2023-01-27T19:02:27.910Z,25.88
2023-01-27T19:04:54.614Z,27.50
2023-01-27T19:07:21.363Z,24.67
2023-01-27T19:09:48.973Z,25.77
2023-01-27T19:12:15.855Z,25.70
2023-01-27T19:14:42.650Z,24.10
2023-01-27T19:17:17.286Z,25.25
2023-01-27T19:19:44.168Z,25.90
2023-01-27T19:22:16.682Z,25.02
2023-01-27T19:24:45.585Z,25.33
2023-01-27T19:27:17.664Z,24.58
2023-01-27T19:29:44.462Z,25.80
2023-01-27T19:32:13.422Z,23.60
2023-01-27T19:34:40.143Z,23.25
2023-01-27T19:37:18.537Z,26.27
2023-01-27T19:39:46.203Z,24.15
2023-01-27T19:42:15.199Z,24.13
2023-01-27T19:44:42.261Z,25.05
2023-01-27T19:47:13.791Z,26.75
2023-01-27T19:49:40.999Z,27.08
2023-01-27T19:52:07.769Z,25.75
2023-01-27T19:54:35.093Z,25.77
2023-01-27T19:57:01.846Z,25.20
2023-01-27T19:59:28.585Z,24.70
2023-01-27T20:01:56.768Z,24.95
2023-01-27T20:04:23.700Z,26.65
2023-01-27T20:06:50.574Z,25.48
2023-01-27T20:09:17.645Z,25.17
2023-01-27T20:11:44.974Z,29.00
2023-01-27T20:14:19.989Z,26.20
2023-01-27T20:16:47.368Z,25.30
2023-01-27T20:19:15.623Z,27.33
2023-01-27T20:21:43.868Z,27.95
2023-01-27T20:24:18.788Z,25.85
2023-01-27T20:26:46.697Z,25.20
2023-01-27T20:29:14.150Z,26.00
2023-01-27T20:31:41.401Z,27.58
2023-01-27T20:34:08.269Z,24.63
2023-01-27T20:36:35.259Z,27.42
2023-01-27T20:39:01.987Z,27.42
2023-01-27T20:41:28.677Z,27.13
2023-01-27T20:43:57.035Z,28.25
2023-01-27T20:46:24.221Z,28.17
2023-01-27T20:48:50.967Z,24.88
2023-01-27T20:51:17.660Z,27.63
2023-01-27T20:53:48.038Z,26.73
2023-01-27T20:56:17.981Z,28.83
2023-01-27T20:58:45.531Z,25.52
2023-01-27T21:01:18.518Z,28.77
2023-01-27T21:03:45.559Z,25.17
2023-01-27T21:06:14.151Z,26.70
2023-01-27T21:08:42.696Z,28.13
2023-01-27T21:11:15.887Z,29.65
2023-01-27T21:13:42.617Z,28.25
2023-01-27T21:16:09.564Z,31.02
2023-01-27T21:18:37.136Z,30.50
2023-01-27T21:21:04.625Z,27.42
2023-01-27T21:23:33.304Z,27.10
2023-01-27T21:26:11.635Z,29.90
2023-01-27T21:28:38.355Z,29.75
2023-01-27T21:31:10.861Z,28.48
2023-01-27T21:33:39.188Z,27.65
2023-01-27T21:36:10.324Z,30.13
2023-01-27T21:38:38.186Z,28.60
2023-01-27T21:41:10.113Z,28.70
2023-01-27T21:43:55.433Z,30.20
2023-01-27T21:46:22.410Z,29.90
2023-01-27T21:48:49.558Z,26.20
2023-01-27T21:51:16.273Z,28.95
2023-01-27T21:53:43.265Z,30.60
2023-01-27T21:56:11.091Z,26.65
2023-01-27T21:58:38.015Z,29.50
2023-01-27T22:01:06.576Z,27.88
2023-01-27T22:03:33.811Z,30.58
2023-01-27T22:06:08.636Z,28.42
2023-01-27T22:08:35.872Z,30.02
2023-01-27T22:11:07.353Z,29.80
2023-01-27T22:13:34.903Z,29.60
2023-01-27T22:16:02.515Z,26.88
2023-01-27T22:18:30.159Z,29.25
2023-01-27T22:21:00.416Z,25.83
2023-01-27T22:23:27.115Z,27.77
2023-01-27T22:25:54.104Z,27.25
2023-01-27T22:28:23.073Z,29.83
2023-01-27T22:30:50.163Z,33.85
2023-01-27T22:33:17.133Z,30.65
2023-01-27T22:35:44.071Z,25.30
2023-01-27T22:38:10.952Z,27.60
2023-01-27T22:40:37.784Z,30.55
2023-01-27T22:43:10.166Z,27.10
2023-01-27T22:45:40.590Z,31.90
2023-01-27T22:48:08.785Z,30.90
2023-01-27T22:50:36.764Z,29.13
2023-01-27T22:53:05.290Z,31.52
2023-01-27T22:55:32.466Z,28.38
2023-01-27T22:57:59.161Z,32.55
2023-01-27T23:00:25.852Z,31.42
2023-01-27T23:02:52.630Z,30.13
2023-01-27T23:05:19.371Z,30.30
2023-01-27T23:07:47.572Z,30.33
2023-01-27T23:10:14.354Z,31.17
2023-01-27T23:12:41.078Z,30.63
2023-01-27T23:15:08.584Z,32.80
2023-01-27T23:17:35.543Z,29.63
2023-01-27T23:20:02.623Z,31.58
2023-01-27T23:22:29.543Z,33.63
2023-01-27T23:24:56.257Z,31.27
2023-01-27T23:27:22.962Z,30.70
2023-01-27T23:29:49.719Z,32.70
2023-01-27T23:32:16.447Z,35.78
2023-01-27T23:34:43.161Z,35.17
2023-01-27T23:37:09.906Z,33.30
2023-01-27T23:39:37.069Z,34.17
2023-01-27T23:42:03.886Z,29.50
2023-01-27T23:44:30.625Z,33.08
2023-01-27T23:46:57.300Z,33.13
2023-01-27T23:49:24.062Z,31.73
2023-01-27T23:51:50.752Z,31.20
2023-01-27T23:54:17.453Z,32.35
2023-01-27T23:56:45.620Z,30.17
2023-01-27T23:59:13.277Z,30.08
